createdAt,value
2018-02-18T00:00:07.340Z,73.20
2018-02-18T00:02:35.591Z,73.50
2018-02-18T00:05:03.091Z,73.40
2018-02-18T00:07:30.608Z,72.90
2018-02-18T00:09:58.928Z,73.20
2018-02-18T00:12:27.218Z,72.60
2018-02-18T00:14:56.647Z,72.60
2018-02-18T00:17:24.167Z,73.00
2018-02-18T00:19:52.440Z,73.00
2018-02-18T00:22:20.765Z,73.20
2018-02-18T00:24:48.260Z,73.00
2018-02-18T00:27:15.767Z,73.30
2018-02-18T00:29:43.294Z,73.40
2018-02-18T00:32:10.831Z,73.50
2018-02-18T00:34:38.342Z,73.70
2018-02-18T00:37:06.619Z,74.10
2018-02-18T00:39:34.892Z,74.30
2018-02-18T00:42:02.404Z,74.20
2018-02-18T00:44:29.937Z,75.20
2018-02-18T00:46:58.198Z,75.20
2018-02-18T00:49:25.760Z,74.60
2018-02-18T00:51:53.244Z,74.40
2018-02-18T00:54:21.519Z,74.70
2018-02-18T00:56:49.780Z,74.70
2018-02-18T00:59:18.555Z,74.70
2018-02-18T01:01:49.170Z,74.90
2018-02-18T01:04:17.013Z,74.70
2018-02-18T01:06:44.522Z,74.00
2018-02-18T01:09:12.080Z,73.50
2018-02-18T01:11:39.782Z,73.60
2018-02-18T01:14:07.298Z,73.50
2018-02-18T01:16:34.801Z,73.50
2018-02-18T01:19:02.352Z,73.50
2018-02-18T01:21:29.886Z,73.10
2018-02-18T01:23:57.403Z,72.80
2018-02-18T01:26:25.686Z,73.00
2018-02-18T01:28:53.966Z,73.10
2018-02-18T01:31:22.252Z,73.20
2018-02-18T01:33:50.519Z,73.00
2018-02-18T01:36:18.041Z,73.00
2018-02-18T01:38:45.569Z,72.70
2018-02-18T01:41:13.853Z,72.70
2018-02-18T01:43:41.366Z,72.60
2018-02-18T01:46:08.877Z,72.30
2018-02-18T01:48:36.371Z,72.20
2018-02-18T01:51:03.906Z,72.10
2018-02-18T01:53:31.393Z,72.00
2018-02-18T01:55:58.942Z,72.60
2018-02-18T01:58:27.124Z,72.00
2018-02-18T02:00:54.683Z,72.10
2018-02-18T02:03:22.193Z,72.10
2018-02-18T02:05:49.837Z,72.30
2018-02-18T02:08:17.325Z,72.40
2018-02-18T02:10:44.851Z,72.50
2018-02-18T02:13:12.343Z,72.50
2018-02-18T02:15:39.855Z,72.40
2018-02-18T02:18:08.121Z,72.30
2018-02-18T02:20:36.386Z,72.30
2018-02-18T02:23:03.883Z,72.30
2018-02-18T02:25:31.403Z,72.20
2018-02-18T02:27:58.936Z,72.40
2018-02-18T02:30:26.436Z,72.40
2018-02-18T02:32:54.696Z,72.10
2018-02-18T02:35:22.193Z,72.20
2018-02-18T02:37:49.684Z,72.20
2018-02-18T02:40:17.193Z,72.30
2018-02-18T02:42:44.690Z,72.20
2018-02-18T02:45:12.960Z,72.50
2018-02-18T02:47:40.539Z,72.40
2018-02-18T02:50:08.829Z,72.50
2018-02-18T02:52:37.096Z,72.50
2018-02-18T02:55:05.365Z,72.50
2018-02-18T02:57:34.408Z,72.70
2018-02-18T03:00:02.709Z,72.80
2018-02-18T03:02:30.223Z,72.70
2018-02-18T03:04:58.497Z,72.50
2018-02-18T03:07:26.985Z,72.20
2018-02-18T03:09:55.404Z,72.30
2018-02-18T03:12:22.894Z,72.20
2018-02-18T03:14:50.414Z,72.30
2018-02-18T03:17:17.937Z,72.50
2018-02-18T03:19:45.473Z,72.50
2018-02-18T03:22:12.973Z,72.70
2018-02-18T03:24:41.265Z,73.10
2018-02-18T03:27:09.575Z,72.90
2018-02-18T03:29:37.800Z,73.00
2018-02-18T03:32:06.077Z,73.10
2018-02-18T03:34:33.595Z,73.10
2018-02-18T03:37:01.107Z,72.90
2018-02-18T03:39:28.627Z,72.70
2018-02-18T03:41:56.160Z,72.90
2018-02-18T03:44:24.442Z,73.20
2018-02-18T03:46:52.729Z,73.30
2018-02-18T03:49:20.992Z,74.00
2018-02-18T03:51:48.499Z,73.30
2018-02-18T03:54:15.989Z,74.10
2018-02-18T03:56:43.526Z,73.60
2018-02-18T03:59:11.590Z,73.50
2018-02-18T04:01:41.712Z,73.10
2018-02-18T04:04:09.552Z,73.00
2018-02-18T04:06:37.070Z,73.10
2018-02-18T04:09:04.559Z,72.40
2018-02-18T04:11:32.165Z,72.60
2018-02-18T04:14:00.476Z,72.90
2018-02-18T04:16:27.991Z,72.90
2018-02-18T04:18:55.475Z,72.60
2018-02-18T04:21:23.750Z,72.30
2018-02-18T04:23:52.002Z,71.90
2018-02-18T04:26:20.302Z,71.80
2018-02-18T04:28:47.963Z,71.90
2018-02-18T04:31:16.250Z,72.30
2018-02-18T04:33:44.525Z,72.10
2018-02-18T04:36:12.038Z,71.90
2018-02-18T04:38:39.533Z,71.90
2018-02-18T04:41:07.074Z,71.90
2018-02-18T04:43:34.881Z,71.90
2018-02-18T04:46:03.156Z,71.40
2018-02-18T04:48:31.342Z,71.40
2018-02-18T04:50:58.832Z,71.40
2018-02-18T04:53:27.102Z,71.40
2018-02-18T04:55:55.369Z,71.20
2018-02-18T04:58:23.627Z,70.90
2018-02-18T05:00:51.977Z,70.80
2018-02-18T05:03:19.480Z,70.80
2018-02-18T05:05:46.969Z,71.10
2018-02-18T05:08:15.248Z,70.50
2018-02-18T05:10:43.524Z,70.90
2018-02-18T05:13:11.822Z,71.00
2018-02-18T05:15:40.089Z,71.00
2018-02-18T05:18:08.363Z,70.90
2018-02-18T05:20:35.861Z,70.90
2018-02-18T05:23:03.388Z,71.10
2018-02-18T05:25:31.656Z,71.20
2018-02-18T05:27:59.947Z,71.10
2018-02-18T05:30:27.478Z,71.10
2018-02-18T05:32:55.000Z,71.10
2018-02-18T05:35:23.262Z,70.70
2018-02-18T05:37:51.537Z,70.40
2018-02-18T05:40:19.024Z,70.40
2018-02-18T05:42:46.672Z,69.90
2018-02-18T05:45:14.959Z,70.50
2018-02-18T05:47:43.238Z,69.70
2018-02-18T05:50:10.745Z,69.70
2018-02-18T05:52:38.255Z,69.40
2018-02-18T05:55:05.743Z,68.50
2018-02-18T05:57:34.065Z,67.40
2018-02-18T06:00:01.565Z,67.40
2018-02-18T06:02:29.842Z,66.50
2018-02-18T06:04:57.457Z,66.50
2018-02-18T06:07:25.047Z,66.60
2018-02-18T06:09:52.544Z,66.50
2018-02-18T06:12:20.822Z,60.00
2018-02-18T06:14:49.090Z,60.50
2018-02-18T06:17:16.586Z,60.40
2018-02-18T06:19:44.881Z,62.40
2018-02-18T06:22:12.416Z,62.30
2018-02-18T06:24:40.674Z,63.30
2018-02-18T06:27:08.195Z,63.30
2018-02-18T06:29:35.700Z,63.50
2018-02-18T06:32:03.201Z,63.40
2018-02-18T06:34:30.713Z,62.50
2018-02-18T06:36:58.200Z,62.10
2018-02-18T06:39:25.709Z,62.20
2018-02-18T06:41:53.197Z,61.10
2018-02-18T06:44:20.738Z,61.30
2018-02-18T06:46:48.228Z,60.80
2018-02-18T06:49:15.766Z,61.00
2018-02-18T06:51:43.257Z,59.30
2018-02-18T06:54:10.751Z,58.10
2018-02-18T06:56:39.033Z,57.40
2018-02-18T06:59:07.301Z,57.10
2018-02-18T07:01:34.789Z,57.10
2018-02-18T07:04:03.107Z,56.70
2018-02-18T07:06:30.638Z,56.70
2018-02-18T07:08:58.913Z,56.40
2018-02-18T07:11:27.185Z,56.60
2018-02-18T07:13:55.462Z,56.00
2018-02-18T07:16:23.714Z,55.80
2018-02-18T07:18:51.231Z,56.20
2018-02-18T07:21:18.721Z,55.90
2018-02-18T07:23:46.238Z,55.90
2018-02-18T07:26:14.525Z,55.80
2018-02-18T07:28:42.885Z,55.50
2018-02-18T07:31:10.357Z,55.40
2018-02-18T07:33:37.882Z,55.60
2018-02-18T07:36:05.643Z,55.60
2018-02-18T07:38:33.681Z,55.70
2018-02-18T07:41:01.177Z,55.50
2018-02-18T07:43:28.700Z,55.50
2018-02-18T07:45:56.949Z,55.30
2018-02-18T07:48:24.575Z,55.70
2018-02-18T07:50:52.064Z,55.20
2018-02-18T07:53:19.730Z,55.10
2018-02-18T07:55:47.233Z,54.80
2018-02-18T07:58:15.483Z,54.90
2018-02-18T08:00:42.980Z,55.30
2018-02-18T08:03:11.462Z,55.00
2018-02-18T08:05:39.727Z,54.80
2018-02-18T08:08:08.185Z,54.70
2018-02-18T08:10:35.663Z,54.90
2018-02-18T08:13:03.209Z,55.00
2018-02-18T08:15:30.728Z,54.70
2018-02-18T08:17:58.998Z,56.70
2018-02-18T08:20:27.268Z,57.80
2018-02-18T08:22:54.765Z,57.70
2018-02-18T08:25:22.262Z,57.80
2018-02-18T08:27:49.749Z,58.10
2018-02-18T08:30:17.482Z,58.50
2018-02-18T08:32:45.052Z,58.40
2018-02-18T08:35:12.993Z,58.20
2018-02-18T08:37:40.495Z,57.80
2018-02-18T08:40:08.001Z,56.10
2018-02-18T08:42:36.278Z,56.20
2018-02-18T08:45:04.638Z,56.20
2018-02-18T08:47:33.642Z,55.60
2018-02-18T08:50:01.192Z,55.60
2018-02-18T08:52:28.730Z,56.10
2018-02-18T08:54:56.349Z,55.60
2018-02-18T08:57:24.614Z,54.60
2018-02-18T08:59:52.128Z,54.50
2018-02-18T09:02:19.625Z,54.20
2018-02-18T09:04:47.200Z,53.70
2018-02-18T09:07:14.737Z,53.80
2018-02-18T09:09:42.258Z,53.80
2018-02-18T09:12:09.767Z,54.50
2018-02-18T09:14:37.398Z,54.80
2018-02-18T09:17:04.906Z,54.60
2018-02-18T09:19:32.418Z,54.20
2018-02-18T09:21:59.922Z,54.00
2018-02-18T09:24:27.431Z,54.30
2018-02-18T09:26:54.929Z,53.80
2018-02-18T09:29:22.426Z,54.20
2018-02-18T09:31:51.017Z,53.50
2018-02-18T09:34:18.512Z,53.80
2018-02-18T09:36:46.766Z,53.40
2018-02-18T09:39:14.278Z,53.40
2018-02-18T09:41:41.789Z,53.40
2018-02-18T09:44:09.386Z,53.80
2018-02-18T09:46:37.653Z,52.90
2018-02-18T09:49:05.929Z,53.40
2018-02-18T09:51:33.421Z,53.20
2018-02-18T09:54:01.715Z,53.10
2018-02-18T09:56:29.808Z,53.10
2018-02-18T09:58:58.467Z,52.80
2018-02-18T10:01:26.929Z,52.10
2018-02-18T10:03:55.205Z,52.20
2018-02-18T10:06:22.769Z,52.20
2018-02-18T10:08:50.282Z,52.50
2018-02-18T10:11:17.778Z,52.00
2018-02-18T10:13:45.275Z,51.60
2018-02-18T10:16:13.556Z,51.50
2018-02-18T10:18:41.807Z,51.60
2018-02-18T10:21:09.320Z,51.60
2018-02-18T10:23:36.818Z,51.10
2018-02-18T10:26:04.358Z,51.00
2018-02-18T10:28:31.857Z,51.30
2018-02-18T10:30:59.387Z,50.70
2018-02-18T10:33:27.406Z,50.90
2018-02-18T10:35:54.911Z,51.00
2018-02-18T10:38:22.404Z,51.30
2018-02-18T10:40:49.903Z,51.10
2018-02-18T10:43:18.582Z,50.90
2018-02-18T10:45:46.861Z,50.10
2018-02-18T10:48:14.353Z,50.60
2018-02-18T10:50:42.634Z,50.40
2018-02-18T10:53:10.929Z,50.10
2018-02-18T10:55:38.428Z,50.10
2018-02-18T10:58:05.911Z,50.50
2018-02-18T11:00:33.495Z,50.20
2018-02-18T11:03:01.759Z,50.70
2018-02-18T11:05:29.370Z,50.70
2018-02-18T11:07:56.870Z,50.70
2018-02-18T11:10:24.386Z,50.90
2018-02-18T11:12:51.974Z,50.70
2018-02-18T11:15:19.491Z,51.10
2018-02-18T11:17:47.777Z,51.50
2018-02-18T11:20:16.124Z,51.50
2018-02-18T11:22:43.762Z,51.50
2018-02-18T11:25:11.617Z,51.30
2018-02-18T11:27:39.127Z,51.20
2018-02-18T11:30:08.158Z,51.00
2018-02-18T11:32:36.413Z,50.40
2018-02-18T11:35:03.923Z,50.60
2018-02-18T11:37:31.404Z,50.40
2018-02-18T11:39:58.895Z,50.80
2018-02-18T11:42:26.399Z,51.20
2018-02-18T11:44:54.671Z,50.60
2018-02-18T11:47:22.220Z,50.60
2018-02-18T11:49:49.729Z,49.90
2018-02-18T11:52:17.304Z,49.70
2018-02-18T11:54:44.781Z,50.00
2018-02-18T11:57:12.290Z,50.00
2018-02-18T11:59:40.546Z,49.60
2018-02-18T12:02:08.083Z,49.60
2018-02-18T12:04:35.615Z,49.10
2018-02-18T12:07:03.125Z,48.60
2018-02-18T12:09:30.645Z,48.50
2018-02-18T12:11:58.201Z,48.00
2018-02-18T12:14:25.711Z,47.30
2018-02-18T12:16:53.242Z,47.50
2018-02-18T12:19:20.793Z,46.90
2018-02-18T12:21:49.451Z,46.70
2018-02-18T12:24:16.940Z,46.70
2018-02-18T12:26:45.205Z,47.20
2018-02-18T12:29:12.719Z,47.10
2018-02-18T12:31:41.539Z,47.20
2018-02-18T12:34:09.052Z,47.30
2018-02-18T12:36:36.649Z,47.50
2018-02-18T12:39:04.138Z,47.40
2018-02-18T12:41:31.676Z,47.50
2018-02-18T12:43:59.247Z,46.70
2018-02-18T12:46:26.749Z,46.90
2018-02-18T12:48:55.247Z,47.80
2018-02-18T12:51:22.759Z,47.70
2018-02-18T12:53:50.253Z,47.80
2018-02-18T12:56:18.536Z,46.80
2018-02-18T12:58:46.021Z,46.80
2018-02-18T13:01:14.398Z,46.20
2018-02-18T13:03:42.678Z,46.60
2018-02-18T13:06:10.976Z,46.50
2018-02-18T13:08:38.466Z,46.50
2018-02-18T13:11:05.952Z,46.50
2018-02-18T13:13:33.462Z,46.90
2018-02-18T13:16:00.938Z,47.00
2018-02-18T13:18:28.598Z,47.30
2018-02-18T13:20:56.089Z,47.30
2018-02-18T13:23:23.599Z,47.60
2018-02-18T13:25:51.893Z,47.10
2018-02-18T13:28:19.392Z,47.10
2018-02-18T13:30:46.911Z,47.70
2018-02-18T13:33:14.416Z,47.50
2018-02-18T13:35:41.897Z,48.00
2018-02-18T13:38:09.495Z,48.30
2018-02-18T13:40:37.783Z,47.70
2018-02-18T13:43:06.060Z,47.80
2018-02-18T13:45:34.330Z,48.00
2018-02-18T13:48:02.634Z,48.40
2018-02-18T13:50:30.980Z,48.20
2018-02-18T13:52:58.497Z,48.20
2018-02-18T13:55:26.443Z,48.70
2018-02-18T13:57:54.746Z,48.90
2018-02-18T14:00:22.274Z,48.90
2018-02-18T14:02:50.569Z,48.90
2018-02-18T14:05:18.874Z,48.90
2018-02-18T14:07:46.382Z,48.90
2018-02-18T14:10:13.868Z,48.90
2018-02-18T14:12:42.213Z,49.20
2018-02-18T14:15:09.741Z,49.10
2018-02-18T14:17:37.281Z,49.30
2018-02-18T14:20:05.581Z,49.70
2018-02-18T14:22:33.106Z,49.70
2018-02-18T14:25:00.607Z,49.80
2018-02-18T14:27:28.125Z,49.80
2018-02-18T14:29:55.730Z,50.00
2018-02-18T14:32:24.023Z,49.70
2018-02-18T14:34:51.542Z,49.70
2018-02-18T14:37:19.118Z,49.90
2018-02-18T14:39:47.421Z,50.50
2018-02-18T14:42:26.870Z,50.40
2018-02-18T14:45:06.357Z,50.40
2018-02-18T14:47:45.805Z,50.30
2018-02-18T14:50:25.236Z,50.10
2018-02-18T14:53:04.460Z,50.30
2018-02-18T14:58:41.778Z,50.10
2018-02-18T15:01:10.058Z,50.20
2018-02-18T15:03:38.361Z,49.80
2018-02-18T15:06:05.850Z,49.80
2018-02-18T15:08:33.377Z,49.90
2018-02-18T15:11:00.900Z,50.10
2018-02-18T15:13:28.426Z,50.50
2018-02-18T15:15:56.342Z,49.90
2018-02-18T15:18:23.852Z,49.50
2018-02-18T15:20:51.365Z,48.90
2018-02-18T15:23:18.862Z,49.00
2018-02-18T15:25:46.562Z,49.40
2018-02-18T15:28:14.119Z,48.90
2018-02-18T15:30:41.689Z,49.40
2018-02-18T15:33:09.221Z,48.70
2018-02-18T15:35:36.767Z,48.70
2018-02-18T15:38:05.046Z,48.70
2018-02-18T15:40:32.570Z,48.70
2018-02-18T15:43:00.091Z,48.90
2018-02-18T15:45:28.364Z,48.80
2018-02-18T15:47:56.639Z,49.10
2018-02-18T15:50:24.955Z,49.30
2018-02-18T15:52:52.654Z,49.30
2018-02-18T15:55:20.165Z,48.90
2018-02-18T15:57:48.456Z,49.00
2018-02-18T16:00:15.985Z,49.00
2018-02-18T16:02:44.272Z,49.30
2018-02-18T16:05:11.790Z,49.30
2018-02-18T16:07:39.286Z,49.30
2018-02-18T16:10:06.804Z,49.80
2018-02-18T16:12:34.559Z,50.10
2018-02-18T16:15:02.085Z,50.40
2018-02-18T16:17:29.647Z,50.30
2018-02-18T16:19:57.953Z,49.70
2018-02-18T16:22:26.844Z,49.20
2018-02-18T16:24:54.372Z,49.20
2018-02-18T16:27:21.881Z,49.40
2018-02-18T16:29:50.133Z,49.70
2018-02-18T16:32:17.731Z,49.70
2018-02-18T16:34:46.233Z,49.60
2018-02-18T16:37:13.728Z,49.90
2018-02-18T16:39:41.222Z,50.20
2018-02-18T16:42:08.839Z,50.40
2018-02-18T16:44:36.317Z,50.30
2018-02-18T16:47:03.861Z,50.40
2018-02-18T16:49:31.385Z,50.40
2018-02-18T16:51:59.652Z,50.70
2018-02-18T16:54:27.168Z,50.60
2018-02-18T16:56:54.669Z,50.20
2018-02-18T16:59:22.175Z,50.30
2018-02-18T17:01:49.694Z,50.40
2018-02-18T17:04:17.292Z,51.10
2018-02-18T17:06:44.998Z,50.70
2018-02-18T17:09:13.182Z,50.60
2018-02-18T17:11:41.316Z,50.60
2018-02-18T17:14:09.596Z,50.40
2018-02-18T17:16:37.859Z,50.50
2018-02-18T17:19:06.174Z,50.70
2018-02-18T17:21:33.717Z,50.60
2018-02-18T17:24:02.660Z,51.20
2018-02-18T17:26:30.197Z,51.20
2018-02-18T17:28:57.718Z,51.30
2018-02-18T17:31:25.250Z,51.50
2018-02-18T17:33:53.377Z,51.30
2018-02-18T17:36:20.881Z,51.10
2018-02-18T17:38:48.423Z,51.30
2018-02-18T17:41:16.702Z,51.70
2018-02-18T17:43:44.197Z,51.70
2018-02-18T17:46:11.702Z,51.80
2018-02-18T17:48:39.210Z,52.00
2018-02-18T17:51:06.708Z,52.20
2018-02-18T17:53:34.249Z,52.20
2018-02-18T17:56:01.797Z,52.20
2018-02-18T17:58:29.297Z,52.20
2018-02-18T18:00:56.824Z,52.50
2018-02-18T18:03:24.332Z,52.60
2018-02-18T18:05:53.355Z,52.70
2018-02-18T18:08:21.657Z,52.10
2018-02-18T18:10:49.185Z,52.00
2018-02-18T18:13:17.474Z,51.80
2018-02-18T18:15:45.762Z,51.20
2018-02-18T18:18:13.304Z,51.10
2018-02-18T18:20:40.833Z,50.90
2018-02-18T18:23:08.364Z,50.90
2018-02-18T18:25:35.884Z,50.90
2018-02-18T18:28:04.365Z,51.10
2018-02-18T18:30:31.901Z,51.10
2018-02-18T18:32:59.463Z,51.20
2018-02-18T18:35:27.131Z,50.80
2018-02-18T18:37:54.659Z,50.80
2018-02-18T18:40:24.250Z,51.40
2018-02-18T18:42:52.547Z,51.40
2018-02-18T18:45:20.849Z,50.90
2018-02-18T18:47:48.359Z,50.90
2018-02-18T18:50:15.884Z,50.80
2018-02-18T18:52:48.090Z,50.60
2018-02-18T18:55:15.606Z,50.90
2018-02-18T18:57:43.871Z,51.30
2018-02-18T19:00:12.183Z,51.20
2018-02-18T19:02:39.698Z,51.20
2018-02-18T19:05:08.001Z,52.10
2018-02-18T19:07:36.290Z,51.90
2018-02-18T19:10:04.645Z,51.80
2018-02-18T19:12:33.176Z,51.90
2018-02-18T19:15:00.715Z,51.90
2018-02-18T19:17:29.000Z,52.10
2018-02-18T19:19:57.419Z,52.20
2018-02-18T19:22:24.927Z,52.10
2018-02-18T19:24:52.444Z,52.20
2018-02-18T19:27:19.989Z,52.00
2018-02-18T19:29:47.508Z,51.90
2018-02-18T19:32:15.865Z,52.20
2018-02-18T19:34:43.366Z,52.10
2018-02-18T19:37:10.875Z,52.20
2018-02-18T19:39:38.424Z,52.20
2018-02-18T19:42:05.927Z,52.20
2018-02-18T19:44:33.436Z,52.20
2018-02-18T19:47:01.737Z,52.70
2018-02-18T19:49:29.269Z,52.70
2018-02-18T19:51:57.754Z,52.60
2018-02-18T19:54:25.353Z,52.60
2018-02-18T19:56:52.982Z,52.80
2018-02-18T19:59:21.219Z,52.90
2018-02-18T20:01:48.719Z,53.00
2018-02-18T20:04:16.233Z,53.10
2018-02-18T20:06:43.793Z,52.90
2018-02-18T20:09:11.328Z,52.90
2018-02-18T20:11:39.842Z,53.20
2018-02-18T20:14:07.394Z,53.20
2018-02-18T20:16:35.693Z,53.70
2018-02-18T20:19:03.223Z,53.80
2018-02-18T20:21:31.543Z,53.40
2018-02-18T20:23:59.858Z,53.30
2018-02-18T20:26:28.188Z,54.20
2018-02-18T20:28:55.726Z,53.70
2018-02-18T20:31:24.060Z,53.70
2018-02-18T20:33:51.591Z,53.70
2018-02-18T20:36:19.149Z,53.80
2018-02-18T20:38:46.758Z,53.70
2018-02-18T20:41:14.281Z,53.70
2018-02-18T20:43:42.594Z,53.90
2018-02-18T20:46:10.146Z,53.90
2018-02-18T20:48:37.684Z,53.90
2018-02-18T20:51:06.524Z,54.00
2018-02-18T20:53:34.798Z,53.90
2018-02-18T20:56:03.113Z,53.80
2018-02-18T20:58:31.864Z,53.90
2018-02-18T21:00:59.731Z,53.90
2018-02-18T21:03:27.582Z,53.90
2018-02-18T21:05:55.110Z,53.60
2018-02-18T21:08:22.625Z,53.60
2018-02-18T21:10:50.134Z,53.80
2018-02-18T21:13:17.715Z,53.90
2018-02-18T21:15:46.183Z,55.00
2018-02-18T21:18:13.742Z,54.50
2018-02-18T21:20:41.248Z,54.30
2018-02-18T21:23:08.807Z,54.30
2018-02-18T21:25:36.332Z,54.40
2018-02-18T21:28:03.835Z,54.50
2018-02-18T21:30:32.116Z,54.30
2018-02-18T21:33:01.357Z,54.50
2018-02-18T21:35:28.870Z,54.40
2018-02-18T21:37:57.144Z,55.00
2018-02-18T21:40:25.497Z,55.00
2018-02-18T21:42:53.012Z,55.00
2018-02-18T21:45:21.315Z,54.30
2018-02-18T21:47:48.840Z,54.20
2018-02-18T21:50:17.175Z,54.30
2018-02-18T21:52:44.682Z,54.30
2018-02-18T21:55:12.968Z,54.30
2018-02-18T21:57:41.717Z,54.50
2018-02-18T22:00:09.251Z,54.50
2018-02-18T22:02:36.794Z,54.60
2018-02-18T22:05:04.514Z,55.10
2018-02-18T22:07:32.125Z,55.20
2018-02-18T22:10:00.413Z,55.70
2018-02-18T22:12:27.960Z,55.70
2018-02-18T22:14:55.513Z,55.20
2018-02-18T22:17:23.346Z,55.00
2018-02-18T22:19:51.586Z,55.00
2018-02-18T22:22:21.963Z,55.40
2018-02-18T22:24:49.469Z,55.40
2018-02-18T22:27:17.773Z,56.30
2018-02-18T22:29:45.289Z,56.30
2018-02-18T22:32:12.820Z,55.90
2018-02-18T22:34:40.877Z,56.20
2018-02-18T22:37:10.221Z,56.20
2018-02-18T22:39:37.717Z,56.20
2018-02-18T22:42:06.080Z,56.30
2018-02-18T22:44:33.628Z,55.90
2018-02-18T22:47:02.810Z,56.50
2018-02-18T22:49:30.348Z,56.50
2018-02-18T22:51:58.700Z,56.60
2018-02-18T22:54:26.766Z,56.60
2018-02-18T22:56:54.333Z,56.90
2018-02-18T22:59:22.842Z,56.60
2018-02-18T23:01:50.360Z,56.60
2018-02-18T23:04:17.908Z,56.30
2018-02-18T23:06:45.445Z,56.30
2018-02-18T23:09:13.768Z,56.30
2018-02-18T23:11:41.313Z,56.30
2018-02-18T23:14:08.841Z,56.20
2018-02-18T23:16:37.112Z,56.20
2018-02-18T23:19:05.734Z,56.30
2018-02-18T23:21:33.223Z,56.20
2018-02-18T23:24:00.749Z,56.30
2018-02-18T23:26:29.040Z,56.30
2018-02-18T23:28:57.138Z,56.10
2018-02-18T23:31:24.704Z,56.00
2018-02-18T23:33:52.283Z,56.10
2018-02-18T23:36:19.789Z,56.10
2018-02-18T23:38:47.293Z,56.20
2018-02-18T23:41:15.642Z,56.20
2018-02-18T23:43:43.251Z,56.40
2018-02-18T23:46:10.763Z,56.50
2018-02-18T23:48:39.037Z,56.90
2018-02-18T23:51:06.563Z,56.90
2018-02-18T23:53:34.080Z,57.10
2018-02-18T23:56:02.565Z,57.30
2018-02-18T23:58:30.164Z,57.30
